KPLR

St Clair County Airport

Pell City, Alabama, USA
METAR KPLR 151855Z AUTO 22005KT 10SM OVC012 17/15 A2987 RMK A01
Observed Flight Rules
Feb-15 @ 18:55 UTC (11 minutes ago) Marginal Visual Flight Rules
Wind Visibility Clouds
220° at 5 knots 10 miles
  • Overcast at 1,200' AGL
Temperatures Readings
Current 17°C / 63°F
Dewpoint 15°C / 59°F
Humidity 88%
Altimeter 29.87" Hg
Pressure 1011.52 hPa
Elevation 148
METAR KPLR 151855Z AUTO 22005KT 10SM OVC012 17/15 A2987 RMK A01
Observed Flight Rules
Feb-15 @ 18:55 UTC
(11 minutes ago)
MVFR
Wind Visibility
220° at 5 knots 10 miles
Clouds
  • Overcast at 1,200' AGL
Temperature Dewpoint
17°C / 63°F 15°C / 59°F
Humidity Altimeter Pressure
88% 29.87" Hg 1011.52 hPa